Time;durP1;ratioP1;P1;durP2;ratioP2;P2;SDS_P1;SDS_P2;PMS_P1;PMS_P2;Temp;Humidity;BMP_temperature;BMP_pressure;BME280_temperature;BME280_humidity;BME280_pressure;Samples;Min_cycle;Max_cycle;Signal;HPM_P1;HPM_P2
2022/08/10 00:00:29;;;;;;;4.25;2.30;;;19.50;61.30;;;;;;5008458;28;20042;-71
2022/08/10 00:02:57;;;;;;;6.75;1.50;;;19.40;61.90;;;;;;5016946;28;20046;-71
2022/08/10 00:05:24;;;;;;;3.42;1.48;;;19.30;62.20;;;;;;5005905;28;20076;-71
2022/08/10 00:07:51;;;;;;;5.03;1.50;;;19.20;63.00;;;;;;4997423;28;20050;-71
2022/08/10 00:10:19;;;;;;;3.55;1.63;;;19.10;62.80;;;;;;5013556;28;20061;-71
2022/08/10 00:12:46;;;;;;;5.28;1.55;;;19.00;63.50;;;;;;4996711;28;20056;-70
2022/08/10 00:15:15;;;;;;;5.82;1.70;;;19.00;63.10;;;;;;5019894;28;20056;-71
2022/08/10 00:17:42;;;;;;;4.43;1.52;;;19.00;63.20;;;;;;5000482;28;20077;-70
2022/08/10 00:20:09;;;;;;;2.25;1.40;;;18.90;63.00;;;;;;5015897;28;20462;-70
2022/08/10 00:22:37;;;;;;;5.70;1.77;;;18.90;63.00;;;;;;5016733;28;20041;-71
2022/08/10 00:25:05;;;;;;;5.10;1.90;;;19.00;63.10;;;;;;5016956;28;20365;-71
2022/08/10 00:27:32;;;;;;;5.50;1.77;;;19.00;63.20;;;;;;5010591;28;20050;-71
2022/08/10 00:29:59;;;;;;;4.05;1.90;;;19.00;63.70;;;;;;5011236;28;20129;-70
2022/08/10 00:32:26;;;;;;;5.68;1.98;;;18.90;63.40;;;;;;5021847;28;20077;-70
2022/08/10 00:34:52;;;;;;;4.32;1.63;;;18.90;64.00;;;;;;5004889;28;20411;-70
2022/08/10 00:37:20;;;;;;;5.78;2.08;;;18.90;63.90;;;;;;5016746;28;20074;-70
2022/08/10 00:39:47;;;;;;;3.70;1.52;;;18.80;64.30;;;;;;5010163;28;20053;-70
2022/08/10 00:42:14;;;;;;;3.42;1.58;;;18.90;63.90;;;;;;4997889;28;20087;-70
2022/08/10 00:44:46;;;;;;;3.47;1.52;;;18.90;64.30;;;;;;5013436;28;20057;-71
2022/08/10 00:47:13;;;;;;;5.30;1.55;;;18.80;64.80;;;;;;5013081;28;20046;-70
2022/08/10 00:49:40;;;;;;;7.22;1.90;;;18.80;65.10;;;;;;5010373;28;20068;-69
2022/08/10 00:52:08;;;;;;;4.57;1.65;;;18.80;64.20;;;;;;5007822;28;20143;-73
2022/08/10 00:54:38;;;;;;;3.90;1.50;;;18.80;64.90;;;;;;5021084;28;20053;-70
2022/08/10 00:57:05;;;;;;;5.55;1.70;;;18.80;65.20;;;;;;5012993;28;20045;-71
2022/08/10 00:59:32;;;;;;;4.90;1.75;;;18.70;64.70;;;;;;5017832;28;20073;-70
2022/08/10 01:01:59;;;;;;;3.15;1.67;;;18.60;64.90;;;;;;5014843;28;20507;-70
2022/08/10 01:04:26;;;;;;;4.53;1.67;;;18.50;65.50;;;;;;5039249;28;20483;-71
2022/08/10 01:07:07;;;;;;;4.75;1.65;;;18.50;64.80;;;;;;4994698;28;20049;-73
2022/08/10 01:10:11;;;;;;;4.93;1.73;;;18.50;65.30;;;;;;5015666;28;20045;-71
2022/08/10 01:13:07;;;;;;;4.13;1.73;;;18.50;65.00;;;;;;5011062;28;20045;-71
2022/08/10 01:16:06;;;;;;;5.97;1.77;;;18.40;65.70;;;;;;5027695;28;20041;-71
2022/08/10 01:19:26;;;;;;;6.03;1.80;;;18.40;65.60;;;;;;5009838;28;20067;-70
2022/08/10 01:22:10;;;;;;;4.47;1.52;;;18.30;65.70;;;;;;5007194;28;20238;-71
2022/08/10 01:25:10;;;;;;;3.63;1.42;;;18.30;65.70;;;;;;4989937;28;20054;-70
2022/08/10 01:27:55;;;;;;;4.53;1.65;;;18.30;66.00;;;;;;5006431;28;20054;-70
2022/08/10 01:30:23;;;;;;;3.85;1.98;;;18.30;66.00;;;;;;5006612;28;20128;-70
2022/08/10 01:33:07;;;;;;;4.55;1.67;;;18.30;65.30;;;;;;4993528;28;20085;-70
2022/08/10 01:35:51;;;;;;;5.97;1.92;;;18.40;65.50;;;;;;5048882;28;20490;-70
2022/08/10 01:38:35;;;;;;;5.47;1.70;;;18.40;65.30;;;;;;5021138;28;20049;-71
2022/08/10 01:41:06;;;;;;;5.53;1.60;;;18.40;65.00;;;;;;4996107;28;20522;-70
2022/08/10 01:43:35;;;;;;;4.88;1.73;;;18.30;65.70;;;;;;5005824;28;20037;-71
2022/08/10 01:46:02;;;;;;;5.20;1.63;;;18.30;65.60;;;;;;5024437;28;20037;-70
2022/08/10 01:48:39;;;;;;;7.72;1.85;;;18.30;65.40;;;;;;5028046;28;20041;-70
2022/08/10 01:51:19;;;;;;;4.90;1.80;;;18.20;65.70;;;;;;5011396;28;20057;-71
2022/08/10 01:53:59;;;;;;;5.68;2.03;;;18.20;65.90;;;;;;5022051;28;20041;-71
2022/08/10 01:56:28;;;;;;;3.65;1.92;;;18.10;66.30;;;;;;4990501;28;20048;-71
2022/08/10 01:59:17;;;;;;;5.03;2.17;;;18.10;66.60;;;;;;5008997;28;20048;-70
2022/08/10 02:01:46;;;;;;;4.57;2.00;;;18.10;66.70;;;;;;5054815;28;20107;-71
2022/08/10 02:04:15;;;;;;;4.55;2.00;;;18.10;67.20;;;;;;5015083;28;20128;-70
2022/08/10 02:06:49;;;;;;;3.45;1.80;;;18.00;66.90;;;;;;5011355;28;20057;-70
2022/08/10 02:09:23;;;;;;;3.35;1.80;;;18.00;67.30;;;;;;5003153;28;20053;-70
2022/08/10 02:11:50;;;;;;;5.20;2.13;;;18.00;67.20;;;;;;5018387;28;20052;-69
2022/08/10 02:14:17;;;;;;;3.08;1.83;;;18.00;67.20;;;;;;5014359;28;20136;-70
2022/08/10 02:16:46;;;;;;;3.45;1.70;;;17.90;67.30;;;;;;5008794;28;20495;-71
2022/08/10 02:19:14;;;;;;;6.30;2.00;;;17.90;67.30;;;;;;5043358;28;20041;-70
2022/08/10 02:21:42;;;;;;;6.00;1.67;;;17.90;68.10;;;;;;5014051;28;20045;-71
2022/08/10 02:24:12;;;;;;;2.80;1.88;;;17.80;68.00;;;;;;5005029;28;20683;-70
2022/08/10 02:26:43;;;;;;;4.82;1.88;;;17.80;67.90;;;;;;5011456;28;20467;-70
2022/08/10 02:29:12;;;;;;;5.47;2.40;;;17.70;68.20;;;;;;5012237;28;20065;-70
2022/08/10 02:31:40;;;;;;;5.43;1.80;;;17.70;68.30;;;;;;5011884;28;20057;-70
2022/08/10 02:34:11;;;;;;;6.03;2.07;;;17.70;68.20;;;;;;5013266;28;20091;-70
2022/08/10 02:36:42;;;;;;;4.10;1.90;;;17.60;67.90;;;;;;5022651;28;20283;-69
2022/08/10 02:39:08;;;;;;;4.97;2.08;;;17.60;68.00;;;;;;5040900;28;20429;-70
2022/08/10 02:41:54;;;;;;;6.25;2.30;;;17.60;67.80;;;;;;5038813;28;20041;-71
2022/08/10 02:44:26;;;;;;;5.85;2.17;;;17.60;68.10;;;;;;5017796;28;20052;-70
2022/08/10 02:47:03;;;;;;;6.07;1.77;;;17.60;68.60;;;;;;5016669;28;20059;-70
2022/08/10 02:49:34;;;;;;;5.07;2.20;;;17.60;68.70;;;;;;5026772;28;20066;-70
2022/08/10 02:52:04;;;;;;;6.13;1.85;;;17.60;68.50;;;;;;5042042;28;20498;-70
2022/08/10 02:54:34;;;;;;;5.50;2.17;;;17.60;68.20;;;;;;5012312;28;20046;-69
2022/08/10 02:57:28;;;;;;;5.53;2.20;;;17.60;68.20;;;;;;5046046;28;20053;-70
2022/08/10 02:59:58;;;;;;;5.70;2.00;;;17.50;68.60;;;;;;5002388;28;20117;-69
2022/08/10 03:02:45;;;;;;;5.22;1.92;;;17.50;68.80;;;;;;5004944;28;20073;-70
2022/08/10 03:05:13;;;;;;;4.28;2.15;;;17.50;68.50;;;;;;5011810;28;20165;-67
2022/08/10 03:07:59;;;;;;;3.20;1.80;;;17.50;68.50;;;;;;5046043;28;20103;-70
2022/08/10 03:10:27;;;;;;;5.40;1.95;;;17.40;68.80;;;;;;5001197;28;20472;-69
2022/08/10 03:13:03;;;;;;;4.00;2.33;;;17.40;68.40;;;;;;5024499;28;20595;-65
2022/08/10 03:15:31;;;;;;;4.60;3.00;;;17.40;68.80;;;;;;5006752;28;20049;-70
2022/08/10 03:17:58;;;;;;;7.53;2.00;;;17.30;68.90;;;;;;5011698;28;20371;-69
2022/08/10 03:20:27;;;;;;;5.93;2.00;;;17.30;68.90;;;;;;5000690;28;20041;-69
2022/08/10 03:22:53;;;;;;;5.63;2.20;;;17.30;68.90;;;;;;5012824;28;20660;-69
2022/08/10 03:25:21;;;;;;;5.57;2.20;;;17.30;69.10;;;;;;5010813;28;20045;-70
2022/08/10 03:27:49;;;;;;;6.00;2.30;;;17.30;69.30;;;;;;5025146;28;20081;-70
2022/08/10 03:30:16;;;;;;;3.53;1.98;;;17.30;68.90;;;;;;4995432;28;20081;-70
2022/08/10 03:32:43;;;;;;;5.00;2.42;;;17.30;69.00;;;;;;4995808;28;20050;-70
2022/08/10 03:35:10;;;;;;;4.78;1.95;;;17.20;69.30;;;;;;5023104;28;20064;-70
2022/08/10 03:37:37;;;;;;;5.15;2.40;;;17.10;69.30;;;;;;5011127;28;20050;-70
2022/08/10 03:40:05;;;;;;;3.95;2.00;;;17.20;69.00;;;;;;5024777;28;20073;-69
2022/08/10 03:42:32;;;;;;;;;;;17.20;69.30;;;;;;5016875;28;20045;-68
2022/08/10 03:45:01;;;;;;;4.53;2.25;;;17.30;69.10;;;;;;5042435;28;20043;-68
2022/08/10 03:47:31;;;;;;;8.10;2.55;;;17.20;69.50;;;;;;5010977;28;20141;-68
2022/08/10 03:49:58;;;;;;;4.10;1.98;;;17.10;69.20;;;;;;5010832;28;20053;-68
2022/08/10 03:52:25;;;;;;;4.25;2.50;;;17.20;69.10;;;;;;4997237;28;20064;-68
2022/08/10 03:54:52;;;;;;;6.07;2.35;;;17.20;69.60;;;;;;5013984;28;20045;-63
2022/08/10 03:57:20;;;;;;;4.57;2.28;;;17.10;69.70;;;;;;5000036;28;20045;-69
2022/08/10 03:59:48;;;;;;;6.47;2.30;;;17.10;69.60;;;;;;5023338;28;20049;-63
2022/08/10 04:02:15;;;;;;;6.68;2.45;;;17.00;70.00;;;;;;5016708;28;20077;-63
2022/08/10 04:04:43;;;;;;;4.75;2.35;;;16.90;70.50;;;;;;4999865;28;20058;-62
2022/08/10 04:07:10;;;;;;;5.80;2.28;;;16.70;70.60;;;;;;4962067;28;20092;-64
2022/08/10 04:09:38;;;;;;;3.95;2.80;;;16.80;70.80;;;;;;4993682;28;20376;-63
2022/08/10 04:12:05;;;;;;;5.65;2.38;;;16.80;70.20;;;;;;5012920;28;20089;-63
2022/08/10 04:14:32;;;;;;;5.20;2.50;;;16.80;70.00;;;;;;5022695;28;20771;-65
2022/08/10 04:16:59;;;;;;;6.07;2.75;;;16.70;70.60;;;;;;5001130;28;20081;-63
2022/08/10 04:19:26;;;;;;;3.38;2.03;;;16.80;70.70;;;;;;5044774;28;20770;-63
2022/08/10 04:22:15;;;;;;;3.72;2.10;;;16.80;70.90;;;;;;5015853;28;20247;-64
2022/08/10 04:24:42;;;;;;;4.13;2.20;;;16.70;71.30;;;;;;5019207;28;20045;-63
2022/08/10 04:27:09;;;;;;;4.03;2.47;;;16.70;71.80;;;;;;5000660;28;20050;-63
2022/08/10 04:29:37;;;;;;;7.13;2.40;;;16.60;72.40;;;;;;5009527;28;20050;-64
2022/08/10 04:32:04;;;;;;;4.32;2.13;;;16.60;71.70;;;;;;4996923;28;20058;-65
2022/08/10 04:34:31;;;;;;;4.88;2.15;;;16.60;71.40;;;;;;4997910;28;20046;-64
2022/08/10 04:37:00;;;;;;;7.70;2.15;;;16.70;71.20;;;;;;4993672;28;20075;-65
2022/08/10 04:39:27;;;;;;;4.88;2.15;;;16.80;70.80;;;;;;5024865;28;20046;-64
2022/08/10 04:41:54;;;;;;;5.10;2.60;;;16.80;71.00;;;;;;5014914;28;20049;-64
2022/08/10 04:44:23;;;;;;;5.75;2.50;;;16.80;70.70;;;;;;5016147;28;20107;-64
2022/08/10 04:46:49;;;;;;;7.50;2.92;;;16.70;70.80;;;;;;5012070;28;20176;-64
2022/08/10 04:49:17;;;;;;;6.38;2.58;;;16.70;70.90;;;;;;5009436;28;20444;-64
2022/08/10 04:51:44;;;;;;;5.07;2.45;;;16.80;71.20;;;;;;5012547;28;20153;-63
2022/08/10 04:54:10;;;;;;;5.07;2.70;;;16.70;71.20;;;;;;5022309;28;20041;-65
2022/08/10 04:56:38;;;;;;;6.38;2.47;;;16.80;71.30;;;;;;4973348;28;20056;-64
2022/08/10 04:59:08;;;;;;;7.55;2.60;;;16.80;71.00;;;;;;4999582;28;20348;-63
2022/08/10 05:01:37;;;;;;;8.52;2.72;;;16.80;70.90;;;;;;5015452;28;20151;-64
2022/08/10 05:04:04;;;;;;;5.68;2.58;;;16.80;70.60;;;;;;4984198;28;20058;-64
2022/08/10 05:06:31;;;;;;;5.97;2.17;;;16.70;71.00;;;;;;5018811;28;20124;-63
2022/08/10 05:08:58;;;;;;;6.93;2.60;;;16.60;71.00;;;;;;4995600;28;20473;-64
2022/08/10 05:11:25;;;;;;;5.60;2.93;;;16.60;71.20;;;;;;5014223;28;20140;-64
2022/08/10 05:13:53;;;;;;;7.03;2.78;;;16.70;71.20;;;;;;5010372;28;20053;-63
2022/08/10 05:16:20;;;;;;;5.38;2.60;;;16.70;71.00;;;;;;5004654;28;20370;-63
2022/08/10 05:18:47;;;;;;;7.22;2.22;;;16.70;71.30;;;;;;4994674;28;20464;-63
2022/08/10 05:21:14;;;;;;;6.18;2.70;;;16.70;71.40;;;;;;5021553;28;20479;-63
2022/08/10 05:23:41;;;;;;;6.47;2.75;;;16.60;71.30;;;;;;5018462;28;20057;-62
2022/08/10 05:26:14;;;;;;;5.20;2.65;;;16.70;72.40;;;;;;5008549;28;20065;-63
2022/08/10 05:28:41;;;;;;;6.43;2.83;;;16.70;72.30;;;;;;5040610;28;20534;-63
2022/08/10 05:31:08;;;;;;;5.72;2.53;;;16.80;72.40;;;;;;5009283;28;20086;-63
2022/08/10 05:33:35;;;;;;;5.03;2.60;;;16.80;72.50;;;;;;5002937;28;20057;-63
2022/08/10 05:36:03;;;;;;;4.15;2.72;;;16.80;72.00;;;;;;5019462;28;20539;-63
2022/08/10 05:38:30;;;;;;;7.55;2.55;;;16.90;72.60;;;;;;5002339;28;20061;-64
2022/08/10 05:40:57;;;;;;;4.57;2.50;;;16.90;72.40;;;;;;5013887;28;20033;-63
2022/08/10 05:43:24;;;;;;;5.47;2.67;;;16.90;72.10;;;;;;4982179;28;20418;-63
2022/08/10 05:45:51;;;;;;;6.68;2.47;;;17.00;72.00;;;;;;5012080;28;20099;-65
2022/08/10 05:48:18;;;;;;;5.85;2.70;;;17.10;71.80;;;;;;5008756;28;20050;-65
2022/08/10 05:50:45;;;;;;;4.03;2.70;;;17.10;71.40;;;;;;4993927;28;20108;-63
2022/08/10 05:53:10;;;;;;;5.95;2.80;;;17.20;71.50;;;;;;5061219;28;20051;-63
2022/08/10 05:55:38;;;;;;;5.10;2.33;;;17.20;71.20;;;;;;5013021;28;20128;-63
2022/08/10 05:58:05;;;;;;;3.88;2.30;;;17.30;71.30;;;;;;5018209;28;20409;-62
2022/08/10 06:00:32;;;;;;;5.25;2.47;;;17.40;70.80;;;;;;5010706;28;20475;-64
2022/08/10 06:03:03;;;;;;;4.27;2.60;;;17.40;70.90;;;;;;5019173;28;20049;-67
2022/08/10 06:05:33;;;;;;;5.88;2.80;;;17.50;71.10;;;;;;4996234;28;20506;-67
2022/08/10 06:08:17;;;;;;;5.50;2.42;;;17.50;71.20;;;;;;5019185;28;20068;-68
2022/08/10 06:10:44;;;;;;;4.20;2.33;;;17.60;70.80;;;;;;5021979;28;20042;-68
2022/08/10 06:15:58;;;;;;;6.10;2.30;;;17.80;70.70;;;;;;5009835;28;20103;-67
2022/08/10 06:18:25;;;;;;;5.38;2.30;;;17.80;70.70;;;;;;5024628;28;20037;-63
2022/08/10 06:20:52;;;;;;;4.50;2.03;;;17.90;70.80;;;;;;5011252;28;20044;-63
2022/08/10 06:23:19;;;;;;;5.47;2.45;;;17.90;70.40;;;;;;5018706;28;20041;-68
2022/08/10 06:25:46;;;;;;;8.65;2.03;;;18.00;70.40;;;;;;5022149;28;20068;-68
2022/08/10 06:28:14;;;;;;;4.97;2.05;;;18.10;69.80;;;;;;5023258;28;20759;-68
2022/08/10 06:30:42;;;;;;;5.57;2.35;;;18.10;69.80;;;;;;5024770;28;20064;-68
2022/08/10 06:33:08;;;;;;;5.68;2.40;;;18.20;70.10;;;;;;5007121;28;20491;-69
2022/08/10 06:35:35;;;;;;;4.00;2.10;;;18.30;70.10;;;;;;5027209;28;20061;-68
2022/08/10 06:38:03;;;;;;;4.63;2.33;;;18.40;70.00;;;;;;5004007;28;20078;-68
2022/08/10 06:40:38;;;;;;;3.97;2.20;;;18.40;70.00;;;;;;5009354;28;20065;-68
2022/08/10 06:43:08;;;;;;;4.95;2.33;;;18.50;69.80;;;;;;5044114;28;20052;-68
2022/08/10 06:45:42;;;;;;;6.45;2.60;;;18.50;69.70;;;;;;5023277;28;20120;-68
2022/08/10 06:48:25;;;;;;;5.57;2.17;;;18.60;69.40;;;;;;5021058;28;20136;-68
2022/08/10 06:51:04;;;;;;;4.55;2.08;;;18.70;69.60;;;;;;5007183;28;20133;-68
2022/08/10 06:53:45;;;;;;;5.28;2.25;;;18.80;69.50;;;;;;5029920;28;20057;-68
2022/08/10 06:56:14;;;;;;;4.88;2.17;;;18.80;69.80;;;;;;5019921;28;20529;-67
2022/08/10 06:58:52;;;;;;;4.32;2.35;;;18.90;69.40;;;;;;4999708;28;20483;-71
2022/08/10 07:01:22;;;;;;;7.38;2.45;;;19.00;69.80;;;;;;5018099;28;20530;-66
2022/08/10 07:04:15;;;;;;;5.95;2.70;;;19.00;69.50;;;;;;5025492;28;20517;-66
2022/08/10 07:06:43;;;;;;;7.05;2.50;;;19.10;69.10;;;;;;5030981;28;20128;-67
2022/08/10 07:09:11;;;;;;;5.43;2.50;;;19.20;68.90;;;;;;5027510;28;20649;-65
2022/08/10 07:11:38;;;;;;;13.25;2.88;;;19.30;69.00;;;;;;5007455;28;20045;-66
2022/08/10 07:14:06;;;;;;;6.45;2.25;;;19.40;68.80;;;;;;5024663;28;20042;-64
2022/08/10 07:16:32;;;;;;;9.38;2.25;;;19.40;68.70;;;;;;5020120;28;20128;-65
2022/08/10 07:19:00;;;;;;;5.50;2.40;;;19.50;68.80;;;;;;5007429;28;20474;-67
2022/08/10 07:21:27;;;;;;;4.47;2.58;;;19.60;68.00;;;;;;4991964;28;20047;-66
2022/08/10 07:23:54;;;;;;;5.05;2.50;;;19.60;68.20;;;;;;5037103;28;20045;-66
2022/08/10 07:26:21;;;;;;;6.22;2.42;;;19.70;68.10;;;;;;5007572;28;20049;-65
2022/08/10 07:28:49;;;;;;;7.25;2.85;;;19.80;68.10;;;;;;5021821;28;20053;-64
2022/08/10 07:31:20;;;;;;;5.90;2.30;;;19.90;67.90;;;;;;5007550;28;20144;-65
2022/08/10 07:33:48;;;;;;;9.05;2.42;;;20.00;67.00;;;;;;5056017;28;20050;-67
2022/08/10 07:36:15;;;;;;;;;;;20.10;67.10;;;;;;5009939;28;20053;-67
2022/08/10 07:38:42;;;;;;;6.13;2.13;;;20.10;66.80;;;;;;5009552;28;19920;-66
2022/08/10 07:41:09;;;;;;;5.93;2.35;;;20.20;66.40;;;;;;5026431;28;20051;-64
2022/08/10 07:43:37;;;;;;;6.63;2.60;;;20.30;66.20;;;;;;5045058;28;20041;-66
2022/08/10 07:46:06;;;;;;;7.30;2.05;;;20.30;66.30;;;;;;4997833;28;20137;-66
2022/08/10 07:48:35;;;;;;;6.68;2.40;;;20.40;66.00;;;;;;5014620;28;20050;-64
2022/08/10 07:51:01;;;;;;;;;;;20.50;66.00;;;;;;5025557;28;20045;-64
2022/08/10 07:53:36;;;;;;;6.68;2.25;;;20.60;65.60;;;;;;5025516;28;20265;-63
2022/08/10 07:56:04;;;;;;;6.45;2.53;;;20.60;65.50;;;;;;5026199;28;20052;-64
2022/08/10 07:58:56;;;;;;;4.82;2.00;;;20.70;65.20;;;;;;5029147;28;20052;-65
2022/08/10 08:01:28;;;;;;;5.88;2.20;;;20.70;65.00;;;;;;5021559;28;20049;-68
2022/08/10 08:03:55;;;;;;;6.18;2.10;;;20.90;64.50;;;;;;5024503;28;20372;-68
2022/08/10 08:06:22;;;;;;;4.90;2.20;;;20.90;64.50;;;;;;5006572;28;20046;-68
2022/08/10 08:08:49;;;;;;;3.90;1.70;;;21.00;64.40;;;;;;5006911;28;20057;-67
2022/08/10 08:11:16;;;;;;;7.25;2.15;;;21.10;63.40;;;;;;5025756;28;20072;-67
2022/08/10 08:13:44;;;;;;;8.65;2.17;;;21.20;63.70;;;;;;5009713;28;20041;-67
2022/08/10 08:16:10;;;;;;;4.40;2.20;;;21.30;63.60;;;;;;5001144;28;20052;-67
2022/08/10 08:18:38;;;;;;;5.45;2.30;;;21.30;62.10;;;;;;4998477;28;20044;-67
2022/08/10 08:21:05;;;;;;;7.47;1.85;;;21.40;61.80;;;;;;5039620;28;20081;-68
2022/08/10 08:23:32;;;;;;;5.80;1.88;;;21.50;60.60;;;;;;5025097;28;20128;-68
2022/08/10 08:25:59;;;;;;;5.43;2.20;;;21.60;60.00;;;;;;5010010;28;20061;-68
2022/08/10 08:28:26;;;;;;;8.70;2.10;;;21.60;60.10;;;;;;5004688;28;20137;-67
2022/08/10 08:30:53;;;;;;;13.73;3.15;;;21.70;59.70;;;;;;5025216;28;20639;-67
2022/08/10 08:33:20;;;;;;;12.02;2.00;;;21.80;59.70;;;;;;5025985;28;20053;-67
2022/08/10 08:35:47;;;;;;;4.05;1.95;;;21.90;59.60;;;;;;5011257;28;20056;-67
2022/08/10 08:38:14;;;;;;;3.92;2.00;;;22.00;59.30;;;;;;5015337;28;20041;-68
2022/08/10 08:40:43;;;;;;;5.55;2.00;;;22.10;58.60;;;;;;5022924;28;20124;-67
2022/08/10 08:43:49;;;;;;;3.83;2.00;;;22.20;58.40;;;;;;5015326;28;20064;-67
2022/08/10 08:46:43;;;;;;;4.57;1.60;;;22.30;57.50;;;;;;5024900;28;20344;-66
2022/08/10 08:49:48;;;;;;;5.65;1.98;;;22.40;56.40;;;;;;5022888;28;20049;-66
2022/08/10 08:52:30;;;;;;;5.47;1.63;;;22.50;56.00;;;;;;5022573;28;20231;-67
2022/08/10 08:55:34;;;;;;;5.57;1.90;;;22.60;56.90;;;;;;5009049;28;20045;-67
2022/08/10 08:58:27;;;;;;;3.72;1.95;;;22.70;56.60;;;;;;5023574;28;20544;-67
2022/08/10 09:01:30;;;;;;;9.52;1.80;;;22.80;56.00;;;;;;5023109;28;20041;-68
2022/08/10 09:04:38;;;;;;;3.13;1.73;;;22.90;55.20;;;;;;5028458;28;20049;-67
2022/08/10 09:07:42;;;;;;;3.35;1.80;;;23.00;54.70;;;;;;5044656;28;20335;-67
2022/08/10 09:10:44;;;;;;;5.90;1.70;;;23.00;54.60;;;;;;5018657;28;20045;-67
2022/08/10 09:13:48;;;;;;;3.00;1.60;;;23.10;55.50;;;;;;4993618;28;20077;-67
2022/08/10 09:16:53;;;;;;;6.20;1.85;;;23.20;55.70;;;;;;4997836;28;20042;-68
2022/08/10 09:19:42;;;;;;;3.53;1.80;;;23.20;53.80;;;;;;4996447;28;20103;-67
2022/08/10 09:22:27;;;;;;;6.50;1.80;;;23.30;53.30;;;;;;4984443;28;20052;-66
2022/08/10 09:25:29;;;;;;;4.65;2.05;;;23.30;53.00;;;;;;4997860;28;20084;-68
2022/08/10 09:28:15;;;;;;;3.92;1.70;;;23.40;52.70;;;;;;4983120;28;20046;-68
2022/08/10 09:31:06;;;;;;;3.25;1.80;;;23.40;52.80;;;;;;4995472;28;20506;-67
2022/08/10 09:34:02;;;;;;;7.00;1.90;;;23.50;52.70;;;;;;5037084;28;20066;-68
2022/08/10 09:37:07;;;;;;;5.85;1.60;;;23.50;52.40;;;;;;5017960;28;20042;-68
2022/08/10 09:39:43;;;;;;;4.93;1.70;;;23.60;52.30;;;;;;5040258;28;20045;-67
2022/08/10 09:42:21;;;;;;;4.00;1.40;;;23.60;52.40;;;;;;4982224;28;20048;-67
2022/08/10 09:45:04;;;;;;;9.38;1.80;;;23.70;52.20;;;;;;5015733;28;20053;-68
2022/08/10 09:48:11;;;;;;;9.88;1.83;;;23.80;51.60;;;;;;5021214;28;20102;-67
2022/08/10 09:51:00;;;;;;;;;;;23.90;52.50;;;;;;5022911;28;20049;-67
2022/08/10 09:54:16;;;;;;;9.23;1.80;;;23.90;52.00;;;;;;5038598;28;19927;-69
2022/08/10 09:57:16;;;;;;;5.05;1.52;;;24.00;50.00;;;;;;5007432;28;20041;-67
2022/08/10 10:00:13;;;;;;;4.32;1.60;;;24.10;50.70;;;;;;5025189;28;20132;-69
2022/08/10 10:03:20;;;;;;;3.70;1.40;;;24.20;49.10;;;;;;5014740;28;20498;-68
2022/08/10 10:06:10;;;;;;;3.92;1.55;;;24.30;49.20;;;;;;5018615;28;20550;-68
2022/08/10 10:08:55;;;;;;;4.47;1.55;;;24.40;50.00;;;;;;5008103;28;20050;-67
2022/08/10 10:11:41;;;;;;;5.07;1.52;;;24.50;48.30;;;;;;5013439;28;20075;-68
2022/08/10 10:14:34;;;;;;;6.07;1.45;;;24.50;48.80;;;;;;5015412;28;20566;-69
2022/08/10 10:17:16;;;;;;;3.78;1.33;;;24.60;47.70;;;;;;5015136;28;20049;-68
2022/08/10 10:20:19;;;;;;;5.72;1.70;;;24.60;49.20;;;;;;5016207;28;20073;-69
2022/08/10 10:23:14;;;;;;;7.25;1.92;;;24.80;46.40;;;;;;5021410;28;20132;-69
2022/08/10 10:26:19;;;;;;;7.40;1.52;;;25.00;47.20;;;;;;5000411;28;20068;-68
2022/08/10 10:29:24;;;;;;;5.00;1.58;;;25.10;47.30;;;;;;5023738;28;20057;-69
2022/08/10 10:32:23;;;;;;;7.22;1.50;;;25.20;48.00;;;;;;5021857;28;20535;-70
2022/08/10 10:35:04;;;;;;;4.95;1.23;;;25.30;47.40;;;;;;5023172;28;20099;-69
2022/08/10 10:37:31;;;;;;;4.80;1.48;;;25.50;46.60;;;;;;5003957;28;20353;-68
2022/08/10 10:39:58;;;;;;;7.40;1.42;;;25.60;46.50;;;;;;5005686;28;20104;-68
2022/08/10 10:42:49;;;;;;;4.22;1.50;;;25.70;46.30;;;;;;5020006;28;20045;-68
2022/08/10 10:45:26;;;;;;;7.13;1.73;;;25.60;46.20;;;;;;5022753;28;20049;-68
2022/08/10 10:48:30;;;;;;;3.63;1.27;;;25.40;45.90;;;;;;5041720;28;20493;-68
2022/08/10 10:51:20;;;;;;;3.97;1.50;;;25.20;46.10;;;;;;5021876;28;20056;-67
2022/08/10 10:53:58;;;;;;;5.75;1.30;;;25.40;45.70;;;;;;5016331;28;20682;-69
2022/08/10 10:56:52;;;;;;;6.45;1.42;;;25.60;43.90;;;;;;5016765;28;20053;-69
2022/08/10 10:59:54;;;;;;;3.13;1.20;;;25.80;43.70;;;;;;5021998;28;20080;-68
2022/08/10 11:02:38;;;;;;;5.13;1.60;;;25.80;43.40;;;;;;5008034;28;20045;-69
2022/08/10 11:05:29;;;;;;;5.60;1.60;;;25.90;44.60;;;;;;5025914;28;20041;-68
2022/08/10 11:08:22;;;;;;;3.80;1.30;;;26.10;44.40;;;;;;5022123;28;20050;-67
2022/08/10 11:11:03;;;;;;;3.70;1.20;;;26.30;45.70;;;;;;5009183;28;20053;-66
2022/08/10 11:13:57;;;;;;;9.57;1.33;;;26.50;43.80;;;;;;5046526;28;20045;-67
2022/08/10 11:16:42;;;;;;;3.78;1.40;;;26.60;42.40;;;;;;5030569;28;20042;-66
2022/08/10 11:19:33;;;;;;;5.63;1.50;;;26.30;42.50;;;;;;5033971;28;20045;-66
2022/08/10 11:22:41;;;;;;;4.43;1.35;;;26.20;44.20;;;;;;5024717;28;20049;-67
2022/08/10 11:25:29;;;;;;;3.30;1.30;;;26.20;44.30;;;;;;5035321;28;20462;-67
2022/08/10 11:28:25;;;;;;;2.70;1.50;;;26.40;43.30;;;;;;5015092;28;20543;-67
2022/08/10 11:30:58;;;;;;;3.45;1.30;;;26.50;44.40;;;;;;5022304;28;20099;-66
2022/08/10 11:33:45;;;;;;;3.80;1.30;;;26.30;43.60;;;;;;5025398;28;20053;-66
2022/08/10 11:37:08;;;;;;;3.45;1.05;;;26.20;43.80;;;;;;5009418;28;20045;-66
2022/08/10 11:39:55;;;;;;;3.97;1.30;;;26.30;42.70;;;;;;5019539;28;20189;-66
2022/08/10 11:42:43;;;;;;;4.50;1.30;;;26.60;43.70;;;;;;5011301;28;20052;-66
2022/08/10 11:45:30;;;;;;;5.97;1.33;;;26.70;42.90;;;;;;4991439;28;21254;-66
2022/08/10 11:48:01;;;;;;;4.32;1.33;;;26.90;43.40;;;;;;5014869;28;20053;-67
2022/08/10 11:50:30;;;;;;;5.65;1.33;;;27.00;43.10;;;;;;4984447;28;20560;-67
2022/08/10 11:53:16;;;;;;;3.45;1.00;;;27.10;42.20;;;;;;5009093;28;20057;-67
2022/08/10 11:55:44;;;;;;;3.85;1.30;;;26.90;39.80;;;;;;5016280;28;20048;-66
2022/08/10 12:01:01;;;;;;;4.95;1.40;;;26.70;40.10;;;;;;5038467;28;20368;-66
2022/08/10 12:03:30;;;;;;;4.70;1.42;;;26.70;41.40;;;;;;4992307;28;20062;-66
2022/08/10 12:05:57;;;;;;;4.40;1.30;;;26.80;41.10;;;;;;5015598;28;20053;-66
2022/08/10 12:08:25;;;;;;;3.65;1.13;;;26.90;40.80;;;;;;5002111;28;20060;-67
2022/08/10 12:10:52;;;;;;;2.88;1.17;;;27.00;42.20;;;;;;5042953;28;20628;-66
2022/08/10 12:13:46;;;;;;;4.20;1.08;;;27.20;42.70;;;;;;5042538;28;20165;-68
2022/08/10 12:16:20;;;;;;;4.05;1.15;;;27.30;40.80;;;;;;5015852;28;20459;-65
2022/08/10 12:19:18;;;;;;;3.80;1.00;;;27.40;42.40;;;;;;4999574;28;20194;-66
2022/08/10 12:22:10;;;;;;;6.63;1.33;;;27.60;41.30;;;;;;5023294;28;20048;-67
2022/08/10 12:24:48;;;;;;;6.03;1.40;;;27.60;42.70;;;;;;5017874;28;20073;-67
2022/08/10 12:27:33;;;;;;;4.65;1.27;;;27.70;40.90;;;;;;5010961;28;20052;-66
2022/08/10 12:30:05;;;;;;;4.38;1.30;;;27.90;40.60;;;;;;5021763;28;20057;-68
2022/08/10 12:32:53;;;;;;;4.75;1.25;;;28.10;40.40;;;;;;5020764;28;20927;-67
2022/08/10 12:35:38;;;;;;;4.38;1.30;;;28.20;41.70;;;;;;5022409;28;20037;-65
2022/08/10 12:38:23;;;;;;;3.42;1.13;;;28.30;39.80;;;;;;5020971;28;20123;-66
2022/08/10 12:41:01;;;;;;;3.70;1.20;;;28.40;39.70;;;;;;5016524;28;20480;-67
2022/08/10 12:43:42;;;;;;;4.90;1.27;;;28.50;39.60;;;;;;5012698;28;20056;-66
2022/08/10 12:46:30;;;;;;;4.07;1.40;;;28.40;39.80;;;;;;5023398;28;20054;-67
2022/08/10 12:49:29;;;;;;;3.00;1.05;;;28.60;38.40;;;;;;5007923;28;20099;-67
2022/08/10 12:52:14;;;;;;;5.30;1.20;;;28.70;40.80;;;;;;5024072;28;20203;-66
2022/08/10 12:54:41;;;;;;;3.17;1.17;;;28.60;37.40;;;;;;5034595;28;20071;-65
2022/08/10 12:57:21;;;;;;;2.72;1.30;;;28.60;37.90;;;;;;5014763;28;20050;-66
2022/08/10 12:59:51;;;;;;;6.75;1.20;;;28.80;37.70;;;;;;5014807;28;20041;-66
2022/08/10 13:02:26;;;;;;;6.28;1.40;;;28.80;38.40;;;;;;4999240;28;20050;-66
2022/08/10 13:04:55;;;;;;;5.05;1.30;;;28.80;37.40;;;;;;4997452;28;20076;-65
2022/08/10 13:07:33;;;;;;;4.32;1.60;;;28.90;37.90;;;;;;4997525;28;20084;-72
2022/08/10 13:10:16;;;;;;;2.45;1.02;;;29.10;37.50;;;;;;5025227;28;20467;-66
2022/08/10 13:12:48;;;;;;;3.67;1.10;;;29.20;39.80;;;;;;5017813;28;20687;-68
2022/08/10 13:15:32;;;;;;;4.60;1.38;;;29.30;38.50;;;;;;5024197;28;20053;-66
2022/08/10 13:18:02;;;;;;;6.30;1.20;;;29.30;38.40;;;;;;5009763;28;20052;-65
2022/08/10 13:20:35;;;;;;;3.13;1.17;;;29.40;38.10;;;;;;5009779;28;20046;-67
2022/08/10 13:23:05;;;;;;;2.88;1.00;;;29.50;37.00;;;;;;5024061;28;20056;-69
2022/08/10 13:25:39;;;;;;;3.33;1.23;;;29.50;37.10;;;;;;5002440;28;20045;-69
2022/08/10 13:28:07;;;;;;;4.63;1.10;;;29.70;37.20;;;;;;5023025;28;20073;-69
2022/08/10 13:30:34;;;;;;;2.70;1.20;;;29.80;37.00;;;;;;5022995;28;20072;-68
2022/08/10 13:33:01;;;;;;;2.33;1.10;;;29.80;36.20;;;;;;5020207;28;20469;-70
2022/08/10 13:35:28;;;;;;;2.17;1.00;;;29.90;36.70;;;;;;5010660;28;20053;-69
2022/08/10 13:37:56;;;;;;;5.07;1.23;;;30.10;36.20;;;;;;4995173;28;20116;-69